createdAt,value
2018-10-21T00:00:41.860Z,14.17
2018-10-21T00:03:09.877Z,14.80
2018-10-21T00:05:36.677Z,14.80
2018-10-21T00:08:06.859Z,15.73
2018-10-21T00:10:39.112Z,14.90
2018-10-21T00:13:06.099Z,17.52
2018-10-21T00:15:33.236Z,16.40
2018-10-21T00:18:00.039Z,15.80
2018-10-21T00:20:26.995Z,15.70
2018-10-21T00:22:53.876Z,14.90
2018-10-21T00:25:20.751Z,15.10
2018-10-21T00:27:47.700Z,16.13
2018-10-21T00:30:14.671Z,15.47
2018-10-21T00:32:49.409Z,16.07
2018-10-21T00:35:24.495Z,15.20
2018-10-21T00:37:51.499Z,16.00
2018-10-21T00:40:18.426Z,15.13
2018-10-21T00:42:45.419Z,16.23
2018-10-21T00:45:12.410Z,15.60
2018-10-21T00:47:39.416Z,16.20
2018-10-21T00:50:07.271Z,15.27
2018-10-21T00:52:34.238Z,15.33
2018-10-21T00:55:01.182Z,17.03
2018-10-21T01:00:03.458Z,15.60
2018-10-21T01:02:30.388Z,15.97
2018-10-21T01:04:57.406Z,17.80
2018-10-21T01:07:26.555Z,19.45
2018-10-21T01:09:53.482Z,19.50
2018-10-21T01:12:20.339Z,17.07
2018-10-21T01:14:47.291Z,16.70
2018-10-21T01:17:14.299Z,17.50
2018-10-21T01:19:45.283Z,18.07
2018-10-21T01:22:12.227Z,16.00
2018-10-21T01:24:39.092Z,15.27
2018-10-21T01:27:06.159Z,16.80
2018-10-21T01:29:32.999Z,18.10
2018-10-21T01:32:00.896Z,16.87
2018-10-21T01:34:27.877Z,15.47
2018-10-21T01:36:54.784Z,15.00
2018-10-21T01:39:46.801Z,16.90
2018-10-21T01:42:13.764Z,14.57
2018-10-21T01:44:40.754Z,17.90
2018-10-21T01:47:08.624Z,15.90
2018-10-21T01:49:35.647Z,16.37
2018-10-21T01:54:39.709Z,15.70
2018-10-21T01:57:06.733Z,17.52
2018-10-21T01:59:33.640Z,15.90
2018-10-21T02:02:00.588Z,15.57
2018-10-21T02:04:27.468Z,16.07
2018-10-21T02:06:54.456Z,15.30
2018-10-21T02:09:23.363Z,15.80
2018-10-21T02:11:50.350Z,15.40
2018-10-21T02:14:20.371Z,15.47
2018-10-21T02:16:47.361Z,15.73
2018-10-21T02:19:16.262Z,16.37
2018-10-21T02:21:43.224Z,14.37
2018-10-21T02:24:10.204Z,16.17
2018-10-21T02:26:37.111Z,14.87
2018-10-21T02:29:04.399Z,16.07
2018-10-21T02:31:35.527Z,16.10
2018-10-21T02:34:06.004Z,15.87
2018-10-21T02:36:33.883Z,14.50
2018-10-21T02:39:08.271Z,16.17
2018-10-21T02:41:53.347Z,15.30
2018-10-21T02:44:28.312Z,16.27
2018-10-21T02:46:56.846Z,16.00
2018-10-21T02:49:23.791Z,17.62
2018-10-21T02:51:57.436Z,16.63
2018-10-21T02:54:27.498Z,18.70
2018-10-21T02:56:54.584Z,16.67
2018-10-21T02:59:21.861Z,16.97
2018-10-21T03:01:48.911Z,16.13
2018-10-21T03:04:15.836Z,15.00
2018-10-21T03:06:42.779Z,16.03
2018-10-21T03:09:10.736Z,15.80
2018-10-21T03:11:41.079Z,16.03
2018-10-21T03:14:09.092Z,18.33
2018-10-21T03:16:35.991Z,15.67
2018-10-21T03:19:02.956Z,14.93
2018-10-21T03:21:30.847Z,15.80
2018-10-21T03:23:57.815Z,14.63
2018-10-21T03:26:24.838Z,15.50
2018-10-21T03:28:52.807Z,15.50
2018-10-21T03:31:19.828Z,16.10
2018-10-21T03:33:46.836Z,15.90
2018-10-21T03:36:14.734Z,14.93
2018-10-21T03:38:45.306Z,15.77
2018-10-21T03:41:12.193Z,15.90
2018-10-21T03:43:39.124Z,17.40
2018-10-21T03:46:06.152Z,15.87
2018-10-21T03:48:35.032Z,16.93
2018-10-21T03:51:02.100Z,16.30
2018-10-21T03:53:28.979Z,17.53
2018-10-21T03:55:55.940Z,16.63
2018-10-21T03:58:23.919Z,16.73
2018-10-21T04:00:51.932Z,16.00
2018-10-21T04:03:20.831Z,15.73
2018-10-21T04:05:48.762Z,15.97
2018-10-21T04:08:21.825Z,18.35
2018-10-21T04:10:48.799Z,17.83
2018-10-21T04:13:15.859Z,16.73
2018-10-21T04:15:42.868Z,16.90
2018-10-21T04:18:09.828Z,16.57
2018-10-21T04:20:36.780Z,16.10
2018-10-21T04:23:04.720Z,17.53
2018-10-21T04:25:32.870Z,16.57
2018-10-21T04:28:01.821Z,15.93
2018-10-21T04:30:29.996Z,16.10
2018-10-21T04:33:19.245Z,16.37
2018-10-21T04:35:46.115Z,17.00
2018-10-21T04:38:32.713Z,18.13
2018-10-21T04:40:59.658Z,20.57
2018-10-21T04:43:29.703Z,16.93
2018-10-21T04:45:56.696Z,16.17
2018-10-21T04:48:24.611Z,15.63
2018-10-21T04:50:53.544Z,16.93
2018-10-21T04:53:21.427Z,15.53
2018-10-21T04:55:48.350Z,14.67
2018-10-21T04:58:15.435Z,15.43
2018-10-21T05:00:42.431Z,15.07
2018-10-21T05:03:09.279Z,15.10
2018-10-21T05:05:36.238Z,16.07
2018-10-21T05:08:03.213Z,16.13
2018-10-21T05:10:35.919Z,15.33
2018-10-21T05:13:03.589Z,17.00
2018-10-21T05:15:31.926Z,18.10
2018-10-21T05:17:59.074Z,17.40
2018-10-21T05:20:26.087Z,16.47
2018-10-21T05:22:54.092Z,15.20
2018-10-21T05:25:22.098Z,17.13
2018-10-21T05:27:52.407Z,17.60
2018-10-21T05:30:19.373Z,16.97
2018-10-21T05:32:48.304Z,15.13
2018-10-21T05:35:18.020Z,17.47
2018-10-21T05:37:44.970Z,16.00
2018-10-21T05:40:20.296Z,15.50
2018-10-21T05:42:49.146Z,14.40
2018-10-21T05:45:16.038Z,15.20
2018-10-21T05:47:43.032Z,16.20
2018-10-21T05:50:13.032Z,15.70
2018-10-21T05:52:42.279Z,16.00
2018-10-21T05:55:09.874Z,17.40
2018-10-21T05:57:37.084Z,15.47
2018-10-21T06:00:06.307Z,14.60
2018-10-21T06:02:33.395Z,19.70
2018-10-21T06:05:00.303Z,18.60
2018-10-21T06:07:27.267Z,17.30
2018-10-21T06:09:54.282Z,21.67
2018-10-21T06:12:21.312Z,19.27
2018-10-21T06:14:49.375Z,18.87
2018-10-21T06:17:17.899Z,18.87
2018-10-21T06:19:48.051Z,17.90
2018-10-21T06:22:22.998Z,17.90
2018-10-21T06:24:50.130Z,18.70
2018-10-21T06:27:18.155Z,17.13
2018-10-21T06:29:45.162Z,16.80
2018-10-21T06:32:13.069Z,17.93
2018-10-21T06:34:40.096Z,17.77
2018-10-21T06:37:07.039Z,18.27
2018-10-21T06:39:35.051Z,17.87
2018-10-21T06:42:03.012Z,16.83
2018-10-21T06:44:30.987Z,18.30
2018-10-21T06:46:57.996Z,18.47
2018-10-21T06:49:25.315Z,18.90
2018-10-21T06:51:53.248Z,18.17
2018-10-21T06:54:20.261Z,18.70
2018-10-21T06:56:48.406Z,17.57
2018-10-21T06:59:15.182Z,21.07
2018-10-21T07:01:42.143Z,19.27
2018-10-21T07:04:09.268Z,18.53
2018-10-21T07:06:36.111Z,17.30
2018-10-21T07:09:06.061Z,18.23
2018-10-21T07:11:33.035Z,17.17
2018-10-21T07:14:01.006Z,18.20
2018-10-21T07:16:28.158Z,17.17
2018-10-21T07:18:55.031Z,21.45
2018-10-21T07:23:58.125Z,19.50
2018-10-21T07:26:26.096Z,16.37
2018-10-21T07:28:57.333Z,16.17
2018-10-21T07:31:33.099Z,17.77
2018-10-21T07:34:00.070Z,20.70
2018-10-21T07:36:27.097Z,17.90
2018-10-21T07:38:55.951Z,17.43
2018-10-21T07:41:24.827Z,16.33
2018-10-21T07:43:51.807Z,17.40
2018-10-21T07:46:18.924Z,16.73
2018-10-21T07:48:47.686Z,16.07
2018-10-21T07:51:14.671Z,16.33
2018-10-21T07:53:41.638Z,16.20
2018-10-21T07:56:15.704Z,17.27
2018-10-21T07:58:42.655Z,16.63
2018-10-21T08:01:10.728Z,17.63
2018-10-21T08:03:38.705Z,16.63
2018-10-21T08:06:30.539Z,17.43
2018-10-21T08:08:57.642Z,15.57
2018-10-21T08:11:26.688Z,15.60
2018-10-21T08:13:53.683Z,14.80
2018-10-21T08:16:23.703Z,15.20
2018-10-21T08:18:51.481Z,14.00
2018-10-21T08:21:23.021Z,14.93
2018-10-21T08:23:49.906Z,13.67
2018-10-21T08:26:17.864Z,14.40
2018-10-21T08:28:46.785Z,16.02
2018-10-21T08:31:17.857Z,15.07
2018-10-21T08:33:46.762Z,14.20
2018-10-21T08:36:15.692Z,14.03
2018-10-21T08:38:43.732Z,14.67
2018-10-21T08:41:18.508Z,15.90
2018-10-21T08:43:45.501Z,15.10
2018-10-21T08:46:15.776Z,14.33
2018-10-21T08:51:18.731Z,14.87
2018-10-21T08:53:46.673Z,13.83
2018-10-21T08:56:21.333Z,14.93
2018-10-21T08:58:48.344Z,13.33
2018-10-21T09:01:22.480Z,14.03
2018-10-21T09:03:51.639Z,15.38
2018-10-21T09:06:19.584Z,14.30
2018-10-21T09:08:54.320Z,13.50
2018-10-21T09:13:56.449Z,13.67
2018-10-21T09:16:25.468Z,11.60
2018-10-21T09:18:52.439Z,14.10
2018-10-21T09:21:19.404Z,13.10
2018-10-21T09:23:55.093Z,15.13
2018-10-21T09:26:22.011Z,12.50
2018-10-21T09:28:48.943Z,13.50
2018-10-21T09:31:16.946Z,12.60
2018-10-21T09:33:43.823Z,12.23
2018-10-21T09:36:10.768Z,13.37
2018-10-21T09:38:37.739Z,13.90
2018-10-21T09:41:04.715Z,13.33
2018-10-21T09:43:31.681Z,13.40
2018-10-21T09:46:02.591Z,12.73
2018-10-21T09:48:29.531Z,13.10
2018-10-21T09:50:59.639Z,12.50
2018-10-21T09:53:26.628Z,12.60
2018-10-21T09:55:53.644Z,12.93
2018-10-21T09:58:28.171Z,12.40
2018-10-21T10:01:02.051Z,13.30
2018-10-21T10:03:29.874Z,14.30
2018-10-21T10:05:56.865Z,11.37
2018-10-21T10:08:25.800Z,11.23
2018-10-21T10:10:52.723Z,11.33
2018-10-21T10:13:19.911Z,9.87
2018-10-21T10:15:46.687Z,10.03
2018-10-21T10:18:13.665Z,9.63
2018-10-21T10:20:41.647Z,9.90
2018-10-21T10:23:08.660Z,10.90
2018-10-21T10:25:35.707Z,9.40
2018-10-21T10:28:07.993Z,10.53
2018-10-21T10:30:34.978Z,9.73
2018-10-21T10:33:02.847Z,8.23
2018-10-21T10:35:30.807Z,9.10
2018-10-21T10:37:58.841Z,9.30
2018-10-21T10:40:25.839Z,8.73
2018-10-21T10:42:53.789Z,7.90
2018-10-21T10:45:21.735Z,7.20
2018-10-21T10:47:48.689Z,7.37
2018-10-21T10:50:19.010Z,7.20
2018-10-21T10:52:46.036Z,7.13
2018-10-21T10:55:12.997Z,7.47
2018-10-21T10:57:39.933Z,7.00
2018-10-21T11:00:10.927Z,6.00
2018-10-21T11:02:37.900Z,6.77
2018-10-21T11:05:06.252Z,6.60
2018-10-21T11:07:34.331Z,6.90
2018-10-21T11:10:02.308Z,6.87
2018-10-21T11:12:31.169Z,6.67
2018-10-21T11:14:58.155Z,6.10
2018-10-21T11:17:25.104Z,6.70
2018-10-21T11:19:52.090Z,6.00
2018-10-21T11:22:21.200Z,5.77
2018-10-21T11:24:48.675Z,6.80
2018-10-21T11:27:21.081Z,5.17
2018-10-21T11:29:50.005Z,4.70
2018-10-21T11:32:17.039Z,4.90
2018-10-21T11:34:48.748Z,5.00
2018-10-21T11:37:15.789Z,4.37
2018-10-21T11:39:42.700Z,3.13
2018-10-21T11:42:09.699Z,2.43
2018-10-21T11:44:38.580Z,2.90
2018-10-21T11:47:05.576Z,2.13
2018-10-21T11:49:32.596Z,2.30
2018-10-21T11:51:59.543Z,2.30
2018-10-21T11:54:26.702Z,2.07
2018-10-21T11:56:53.659Z,2.43
2018-10-21T11:59:21.635Z,2.23
2018-10-21T12:01:48.611Z,2.07
2018-10-21T12:04:15.631Z,2.40
2018-10-21T12:06:42.594Z,2.30
2018-10-21T12:09:12.307Z,2.13
2018-10-21T12:11:40.302Z,2.13
2018-10-21T12:14:08.888Z,1.80
2018-10-21T12:16:36.793Z,1.50
2018-10-21T12:19:03.895Z,1.90
2018-10-21T12:21:30.826Z,2.17
2018-10-21T12:23:57.910Z,1.70
2018-10-21T12:26:24.859Z,1.70
2018-10-21T12:28:51.808Z,1.90
2018-10-21T12:31:18.793Z,1.67
2018-10-21T12:33:45.612Z,1.50
2018-10-21T12:36:15.332Z,1.53
2018-10-21T12:38:42.286Z,1.53
2018-10-21T12:41:09.869Z,1.80
2018-10-21T12:43:36.765Z,1.77
2018-10-21T12:46:05.777Z,1.53
2018-10-21T12:48:32.661Z,1.73
2018-10-21T12:51:01.575Z,2.00
2018-10-21T12:53:28.515Z,1.63
2018-10-21T12:55:55.476Z,1.60
2018-10-21T12:58:22.345Z,1.80
2018-10-21T13:00:50.297Z,1.57
2018-10-21T13:03:22.659Z,2.00
2018-10-21T13:05:49.668Z,1.40
2018-10-21T13:08:16.614Z,2.00
2018-10-21T13:10:43.609Z,2.07
2018-10-21T13:13:11.552Z,2.00
2018-10-21T13:15:38.418Z,2.00
2018-10-21T13:18:06.325Z,1.80
2018-10-21T13:20:33.931Z,1.80
2018-10-21T13:23:00.879Z,2.50
2018-10-21T13:25:28.369Z,2.30
2018-10-21T13:27:55.319Z,2.10
2018-10-21T13:30:23.230Z,1.90
2018-10-21T13:32:52.263Z,2.50
2018-10-21T13:35:19.310Z,1.93
2018-10-21T13:37:47.232Z,3.00
2018-10-21T13:40:14.341Z,2.50
2018-10-21T13:42:41.229Z,2.70
2018-10-21T13:45:08.176Z,2.23
2018-10-21T13:47:35.460Z,2.70
2018-10-21T13:50:02.547Z,2.77
2018-10-21T13:52:30.574Z,2.43
2018-10-21T13:54:57.701Z,2.97
2018-10-21T13:57:24.735Z,2.53
2018-10-21T13:59:51.671Z,2.63
2018-10-21T14:02:18.591Z,2.90
2018-10-21T14:04:45.512Z,2.93
2018-10-21T14:07:12.497Z,2.93
2018-10-21T14:09:39.376Z,2.80
2018-10-21T14:12:07.323Z,2.97
2018-10-21T14:14:35.315Z,3.10
2018-10-21T14:17:02.263Z,2.53
2018-10-21T14:19:29.300Z,2.30
2018-10-21T14:21:56.400Z,3.27
2018-10-21T14:24:23.475Z,2.53
2018-10-21T14:26:53.806Z,2.40
2018-10-21T14:29:29.031Z,3.20
2018-10-21T14:31:55.999Z,2.73
2018-10-21T14:34:22.906Z,2.50
2018-10-21T14:36:49.892Z,2.77
2018-10-21T14:39:18.970Z,2.60
2018-10-21T14:41:45.828Z,2.70
2018-10-21T14:44:13.911Z,2.37
2018-10-21T14:46:40.780Z,2.47
2018-10-21T14:49:08.713Z,2.80
2018-10-21T14:51:35.672Z,2.30
2018-10-21T14:54:03.793Z,2.67
2018-10-21T14:56:30.634Z,3.00
2018-10-21T14:58:57.622Z,2.40
2018-10-21T15:01:24.567Z,2.57
2018-10-21T15:03:51.559Z,2.70
2018-10-21T15:06:27.469Z,2.50
2018-10-21T15:08:54.532Z,2.87
2018-10-21T15:11:21.491Z,2.33
2018-10-21T15:13:49.439Z,2.63
2018-10-21T15:16:16.431Z,2.80
2018-10-21T15:18:45.067Z,3.00
2018-10-21T15:21:17.471Z,3.00
2018-10-21T15:23:45.583Z,2.40
2018-10-21T15:26:12.566Z,2.30
2018-10-21T15:28:39.413Z,2.30
2018-10-21T15:31:07.400Z,2.00
2018-10-21T15:33:34.908Z,2.20
2018-10-21T15:36:02.255Z,2.40
2018-10-21T15:38:29.229Z,2.83
2018-10-21T15:40:57.619Z,2.40
2018-10-21T15:43:24.590Z,2.27
2018-10-21T15:45:51.624Z,2.20
2018-10-21T15:48:18.502Z,2.70
2018-10-21T15:50:45.528Z,1.90
2018-10-21T15:53:12.363Z,2.20
2018-10-21T15:55:40.429Z,2.60
2018-10-21T15:58:07.368Z,1.90
2018-10-21T16:00:34.300Z,2.20
2018-10-21T16:03:01.304Z,1.93
2018-10-21T16:05:28.266Z,2.00
2018-10-21T16:07:55.224Z,1.83
2018-10-21T16:10:22.134Z,2.33
2018-10-21T16:12:49.144Z,2.40
2018-10-21T16:15:24.413Z,2.70
2018-10-21T16:17:51.380Z,2.43
2018-10-21T16:20:18.389Z,2.27
2018-10-21T16:22:45.603Z,2.50
2018-10-21T16:25:13.789Z,2.40
2018-10-21T16:27:41.102Z,2.47
2018-10-21T16:30:09.898Z,3.10
2018-10-21T16:32:38.218Z,2.97
2018-10-21T16:35:05.608Z,2.80
2018-10-21T16:37:32.577Z,2.30
2018-10-21T16:39:59.450Z,2.93
2018-10-21T16:42:26.402Z,2.77
2018-10-21T16:44:53.322Z,3.27
2018-10-21T16:47:20.304Z,2.70
2018-10-21T16:49:47.298Z,2.83
2018-10-21T16:52:15.214Z,3.13
2018-10-21T16:54:42.188Z,3.17
2018-10-21T16:57:09.042Z,2.87
2018-10-21T16:59:35.981Z,2.90
2018-10-21T17:02:02.941Z,2.70
2018-10-21T17:04:29.897Z,3.23
2018-10-21T17:06:56.848Z,3.00
2018-10-21T17:09:23.923Z,3.17
2018-10-21T17:11:50.642Z,2.90
2018-10-21T17:14:19.716Z,2.83
2018-10-21T17:16:46.773Z,2.73
2018-10-21T17:19:13.877Z,2.53
2018-10-21T17:21:40.750Z,2.80
2018-10-21T17:24:08.750Z,3.10
2018-10-21T17:26:35.803Z,2.90
2018-10-21T17:29:02.753Z,2.53
2018-10-21T17:31:30.726Z,2.90
2018-10-21T17:33:58.665Z,3.30
2018-10-21T17:36:25.612Z,3.07
2018-10-21T17:38:53.568Z,2.47
2018-10-21T17:41:20.572Z,2.57
2018-10-21T17:43:47.572Z,2.80
2018-10-21T17:46:15.587Z,2.60
2018-10-21T17:48:42.664Z,2.77
2018-10-21T17:51:09.539Z,2.57
2018-10-21T17:53:36.441Z,3.37
2018-10-21T17:56:03.403Z,3.00
2018-10-21T17:58:30.608Z,3.00
2018-10-21T18:00:57.350Z,2.83
2018-10-21T18:03:24.442Z,3.07
2018-10-21T18:05:51.424Z,3.10
2018-10-21T18:08:18.711Z,3.20
2018-10-21T18:10:45.735Z,3.23
2018-10-21T18:13:12.826Z,2.80
2018-10-21T18:15:39.802Z,3.20
2018-10-21T18:18:07.375Z,3.47
2018-10-21T18:20:34.758Z,2.60
2018-10-21T18:23:04.824Z,3.90
2018-10-21T18:25:32.824Z,4.83
2018-10-21T18:27:59.889Z,4.73
2018-10-21T18:30:26.881Z,5.20
2018-10-21T18:32:53.800Z,4.77
2018-10-21T18:35:20.834Z,5.00
2018-10-21T18:37:47.771Z,4.30
2018-10-21T18:40:14.850Z,4.40
2018-10-21T18:42:41.885Z,4.73
2018-10-21T18:45:09.916Z,4.90
2018-10-21T18:47:36.841Z,4.27
2018-10-21T18:50:06.463Z,4.40
2018-10-21T18:52:33.563Z,4.40
2018-10-21T18:55:00.615Z,4.62
2018-10-21T18:57:27.610Z,4.17
2018-10-21T18:59:54.630Z,4.23
2018-10-21T19:02:21.708Z,4.27
2018-10-21T19:04:48.686Z,4.50
2018-10-21T19:07:17.831Z,4.70
2018-10-21T19:09:44.787Z,5.50
2018-10-21T19:12:11.771Z,5.80
2018-10-21T19:14:38.755Z,4.80
2018-10-21T19:17:05.775Z,5.00
2018-10-21T19:19:35.620Z,4.90
2018-10-21T19:22:02.576Z,5.23
2018-10-21T19:24:29.540Z,4.87
2018-10-21T19:27:00.130Z,5.13
2018-10-21T19:29:27.948Z,4.90
2018-10-21T19:31:54.831Z,6.33
2018-10-21T19:34:22.289Z,5.57
2018-10-21T19:36:49.144Z,5.07
2018-10-21T19:39:16.072Z,5.23
2018-10-21T19:41:43.023Z,6.03
2018-10-21T19:44:10.785Z,4.70
2018-10-21T19:46:38.958Z,6.30
2018-10-21T19:49:10.544Z,6.00
2018-10-21T19:51:37.450Z,5.72
2018-10-21T19:54:05.136Z,5.20
2018-10-21T19:56:32.150Z,6.00
2018-10-21T19:59:03.568Z,5.43
2018-10-21T20:01:35.220Z,5.30
2018-10-21T20:04:02.209Z,5.30
2018-10-21T20:06:32.372Z,5.70
2018-10-21T20:08:59.256Z,5.30
2018-10-21T20:11:26.235Z,5.80
2018-10-21T20:13:53.189Z,5.73
2018-10-21T20:16:21.596Z,5.97
2018-10-21T20:18:48.520Z,5.30
2018-10-21T20:21:16.456Z,5.40
2018-10-21T20:23:43.343Z,5.60
2018-10-21T20:26:10.298Z,5.10
2018-10-21T20:28:37.183Z,5.73
2018-10-21T20:31:04.439Z,6.03
2018-10-21T20:33:31.549Z,6.13
2018-10-21T20:35:58.483Z,5.63
2018-10-21T20:38:34.512Z,6.27
2018-10-21T20:41:02.363Z,6.43
2018-10-21T20:43:29.256Z,6.77
2018-10-21T20:45:56.220Z,6.60
2018-10-21T20:48:26.966Z,7.23
2018-10-21T20:50:53.905Z,7.40
2018-10-21T20:53:20.819Z,6.80
2018-10-21T20:55:47.779Z,6.60
2018-10-21T20:58:18.013Z,7.00
2018-10-21T21:00:48.405Z,7.17
2018-10-21T21:03:15.376Z,6.30
2018-10-21T21:05:42.349Z,6.37
2018-10-21T21:08:09.350Z,7.60
2018-10-21T21:10:36.287Z,6.97
2018-10-21T21:13:03.234Z,6.87
2018-10-21T21:15:30.222Z,6.23
2018-10-21T21:17:57.225Z,6.57
2018-10-21T21:20:25.120Z,6.07
2018-10-21T21:22:52.972Z,6.67
2018-10-21T21:25:19.931Z,6.97
2018-10-21T21:27:47.043Z,6.93
2018-10-21T21:30:14.069Z,6.60
2018-10-21T21:32:40.959Z,7.50
2018-10-21T21:35:08.849Z,7.03
2018-10-21T21:37:36.052Z,7.07
2018-10-21T21:40:06.163Z,7.23
2018-10-21T21:42:37.879Z,7.30
2018-10-21T21:45:05.089Z,7.00
2018-10-21T21:47:31.995Z,7.63
2018-10-21T21:49:58.955Z,6.90
2018-10-21T21:52:25.952Z,6.50
2018-10-21T21:54:52.939Z,6.77
2018-10-21T21:57:21.963Z,7.10
2018-10-21T21:59:48.879Z,6.97
2018-10-21T22:02:15.844Z,6.70
2018-10-21T22:04:42.852Z,7.47
2018-10-21T22:07:09.802Z,8.37
2018-10-21T22:09:36.776Z,6.80
2018-10-21T22:12:03.805Z,7.77
2018-10-21T22:14:31.669Z,8.27
2018-10-21T22:16:59.622Z,8.60
2018-10-21T22:19:26.517Z,9.10
2018-10-21T22:21:53.481Z,8.70
2018-10-21T22:24:20.480Z,7.80
2018-10-21T22:26:47.415Z,8.30
2018-10-21T22:29:14.336Z,8.03
2018-10-21T22:31:42.382Z,8.37
2018-10-21T22:34:13.526Z,7.17
2018-10-21T22:36:40.428Z,7.50
2018-10-21T22:39:07.625Z,7.33
2018-10-21T22:41:34.578Z,7.30
2018-10-21T22:44:01.552Z,7.87
2018-10-21T22:46:28.545Z,7.30
2018-10-21T22:49:02.551Z,6.60
2018-10-21T22:51:29.545Z,7.40
2018-10-21T22:53:57.465Z,7.40
2018-10-21T22:56:24.387Z,7.30
2018-10-21T22:58:52.489Z,7.57
2018-10-21T23:01:19.463Z,8.10
2018-10-21T23:03:46.477Z,6.90
2018-10-21T23:06:13.497Z,7.30
2018-10-21T23:08:51.991Z,7.27
2018-10-21T23:11:19.935Z,7.50
2018-10-21T23:13:46.910Z,8.20
2018-10-21T23:16:13.880Z,8.40
2018-10-21T23:18:41.133Z,9.40
2018-10-21T23:21:13.567Z,7.20
2018-10-21T23:23:40.545Z,8.03
2018-10-21T23:26:07.503Z,8.23
2018-10-21T23:28:36.431Z,6.60
2018-10-21T23:31:08.243Z,8.20
2018-10-21T23:33:35.172Z,8.20
2018-10-21T23:36:02.165Z,7.10
2018-10-21T23:38:36.575Z,8.13
2018-10-21T23:41:05.502Z,7.63
2018-10-21T23:43:33.411Z,7.53
2018-10-21T23:46:01.395Z,7.00
2018-10-21T23:48:28.377Z,7.40
2018-10-21T23:50:56.335Z,7.57
2018-10-21T23:53:23.226Z,7.63
2018-10-21T23:55:51.104Z,8.30
2018-10-21T23:58:21.512Z,8.63
